createdAt,value
2019-02-24T00:01:53.255Z,10.77
2019-02-24T00:05:15.920Z,11.13
2019-02-24T00:08:38.522Z,11.13
2019-02-24T00:12:01.109Z,11.63
2019-02-24T00:15:23.408Z,12.17
2019-02-24T00:18:45.821Z,12.10
2019-02-24T00:22:08.272Z,12.80
2019-02-24T00:25:30.720Z,11.83
2019-02-24T00:28:53.186Z,13.13
2019-02-24T00:32:15.799Z,12.13
2019-02-24T00:35:38.181Z,13.53
2019-02-24T00:39:00.300Z,13.20
2019-02-24T00:42:22.980Z,12.30
2019-02-24T00:45:45.102Z,12.43
2019-02-24T00:49:07.560Z,13.83
2019-02-24T00:52:30.005Z,13.57
2019-02-24T00:55:52.212Z,12.97
2019-02-24T00:59:14.689Z,13.20
2019-02-24T01:02:37.162Z,12.70
2019-02-24T01:05:59.664Z,13.27
2019-02-24T01:09:22.054Z,12.10
2019-02-24T01:12:44.450Z,12.17
2019-02-24T01:16:06.721Z,11.80
2019-02-24T01:19:29.024Z,12.63
2019-02-24T01:22:51.676Z,12.87
2019-02-24T01:26:14.626Z,11.90
2019-02-24T01:29:37.213Z,15.50
2019-02-24T01:32:59.765Z,12.17
2019-02-24T01:36:22.672Z,12.30
2019-02-24T01:39:45.204Z,11.60
2019-02-24T01:43:07.267Z,12.53
2019-02-24T01:46:30.013Z,11.83
2019-02-24T01:49:52.717Z,13.80
2019-02-24T01:53:15.205Z,13.57
2019-02-24T01:56:37.645Z,15.10
2019-02-24T02:00:00.484Z,14.37
2019-02-24T02:03:22.614Z,13.50
2019-02-24T02:06:45.241Z,13.90
2019-02-24T02:10:08.068Z,13.97
2019-02-24T02:13:30.506Z,15.17
2019-02-24T02:16:53.266Z,13.83
2019-02-24T02:20:15.773Z,14.70
2019-02-24T02:23:38.251Z,14.90
2019-02-24T02:27:01.015Z,14.30
2019-02-24T02:30:23.501Z,14.00
2019-02-24T02:33:45.702Z,13.83
2019-02-24T02:37:07.898Z,15.10
2019-02-24T02:40:30.406Z,14.80
2019-02-24T02:43:52.906Z,14.37
2019-02-24T02:47:15.403Z,14.97
2019-02-24T02:50:38.125Z,14.50
2019-02-24T02:54:01.032Z,15.00
2019-02-24T02:57:23.805Z,13.87
2019-02-24T03:00:46.737Z,13.33
2019-02-24T03:04:09.449Z,13.20
2019-02-24T03:07:39.946Z,13.00
2019-02-24T03:11:02.712Z,13.00
2019-02-24T03:14:24.914Z,13.30
2019-02-24T03:17:47.198Z,13.50
2019-02-24T03:21:09.639Z,12.77
2019-02-24T03:24:32.226Z,13.63
2019-02-24T03:27:54.595Z,12.40
2019-02-24T03:31:16.929Z,13.03
2019-02-24T03:34:39.418Z,13.37
2019-02-24T03:38:01.936Z,13.13
2019-02-24T03:41:24.836Z,13.70
2019-02-24T03:44:47.703Z,13.67
2019-02-24T03:48:10.405Z,13.87
2019-02-24T03:51:33.169Z,14.27
2019-02-24T03:54:56.159Z,14.40
2019-02-24T03:58:26.024Z,13.63
2019-02-24T04:01:48.641Z,14.03
2019-02-24T04:05:11.456Z,14.40
2019-02-24T04:08:33.617Z,15.47
2019-02-24T04:11:55.963Z,13.57
2019-02-24T04:15:18.169Z,14.53
2019-02-24T04:18:40.358Z,13.27
2019-02-24T04:22:03.083Z,13.37
2019-02-24T04:25:25.727Z,13.07
2019-02-24T04:28:48.296Z,11.83
2019-02-24T04:32:10.986Z,11.00
2019-02-24T04:35:33.880Z,11.87
2019-02-24T04:38:56.822Z,11.60
2019-02-24T04:42:19.384Z,10.67
2019-02-24T04:45:42.294Z,11.30
2019-02-24T04:49:04.784Z,11.53
2019-02-24T04:52:26.977Z,11.27
2019-02-24T04:55:49.316Z,11.37
2019-02-24T04:59:12.000Z,11.90
2019-02-24T05:02:34.477Z,11.17
2019-02-24T05:05:57.146Z,10.83
2019-02-24T05:09:19.702Z,11.43
2019-02-24T05:12:41.865Z,10.93
2019-02-24T05:16:04.323Z,10.50
2019-02-24T05:19:26.520Z,10.53
2019-02-24T05:22:49.214Z,9.97
2019-02-24T05:26:11.940Z,11.37
2019-02-24T05:29:34.161Z,11.30
2019-02-24T05:32:56.580Z,11.47
2019-02-24T05:36:19.237Z,11.17
2019-02-24T05:39:41.738Z,12.03
2019-02-24T05:43:04.209Z,11.10
2019-02-24T05:46:26.788Z,12.53
2019-02-24T05:49:48.952Z,11.67
2019-02-24T05:53:11.822Z,11.63
2019-02-24T05:56:34.693Z,12.17
2019-02-24T05:59:57.219Z,12.40
2019-02-24T06:03:19.908Z,11.83
2019-02-24T06:06:42.581Z,12.37
2019-02-24T06:10:05.743Z,11.70
2019-02-24T06:13:28.402Z,11.23
2019-02-24T06:16:51.029Z,11.87
2019-02-24T06:20:13.571Z,12.20
2019-02-24T06:23:36.195Z,11.93
2019-02-24T06:26:58.837Z,11.67
2019-02-24T06:30:20.949Z,11.63
2019-02-24T06:33:43.895Z,11.87
2019-02-24T06:37:06.596Z,12.17
2019-02-24T06:40:29.306Z,12.10
2019-02-24T06:43:51.372Z,11.47
2019-02-24T06:47:13.941Z,11.60
2019-02-24T06:50:57.756Z,11.27
2019-02-24T06:54:20.616Z,11.77
2019-02-24T06:57:43.236Z,10.87
2019-02-24T07:01:05.887Z,10.20
2019-02-24T07:04:28.373Z,10.70
2019-02-24T07:07:50.763Z,11.37
2019-02-24T07:11:13.394Z,11.60
2019-02-24T07:14:35.802Z,11.30
2019-02-24T07:17:58.169Z,11.77
2019-02-24T07:21:20.658Z,12.33
2019-02-24T07:24:43.122Z,13.40
2019-02-24T07:28:05.589Z,12.13
2019-02-24T07:31:28.154Z,12.67
2019-02-24T07:34:50.945Z,11.70
2019-02-24T07:38:13.043Z,12.13
2019-02-24T07:41:35.582Z,11.80
2019-02-24T07:44:57.819Z,12.20
2019-02-24T07:48:20.545Z,12.37
2019-02-24T07:51:43.286Z,11.67
2019-02-24T07:55:05.550Z,13.33
2019-02-24T07:58:27.706Z,13.47
2019-02-24T08:01:49.847Z,12.27
2019-02-24T08:05:12.672Z,12.57
2019-02-24T08:08:35.197Z,12.77
2019-02-24T08:11:57.857Z,12.87
2019-02-24T08:15:20.513Z,12.30
2019-02-24T08:18:49.289Z,12.23
2019-02-24T08:22:07.217Z,12.73
2019-02-24T08:25:29.912Z,12.80
2019-02-24T08:28:52.641Z,13.17
2019-02-24T08:32:15.361Z,13.37
2019-02-24T08:35:38.266Z,12.27
2019-02-24T08:39:01.293Z,12.90
2019-02-24T08:42:24.040Z,13.87
2019-02-24T08:45:46.694Z,14.00
2019-02-24T08:49:09.181Z,13.93
2019-02-24T08:52:31.856Z,13.73
2019-02-24T08:55:54.390Z,12.83
2019-02-24T08:59:17.043Z,13.17
2019-02-24T09:02:39.566Z,12.80
2019-02-24T09:06:02.246Z,13.20
2019-02-24T09:09:24.457Z,12.03
2019-02-24T09:12:46.541Z,12.80
2019-02-24T09:16:08.713Z,12.80
2019-02-24T09:19:31.186Z,12.87
2019-02-24T09:22:53.573Z,13.70
2019-02-24T09:26:16.111Z,13.13
2019-02-24T09:29:38.855Z,12.93
2019-02-24T09:33:01.301Z,12.00
2019-02-24T09:36:24.137Z,13.97
2019-02-24T09:39:46.794Z,11.90
2019-02-24T09:43:09.128Z,12.50
2019-02-24T09:46:31.914Z,13.17
2019-02-24T09:49:54.348Z,12.27
2019-02-24T09:53:17.184Z,12.60
2019-02-24T09:56:39.783Z,12.37
2019-02-24T10:00:02.708Z,12.40
2019-02-24T10:03:25.272Z,12.87
2019-02-24T10:06:48.168Z,12.17
2019-02-24T10:10:11.216Z,12.20
2019-02-24T10:13:33.805Z,11.97
2019-02-24T10:16:56.378Z,13.33
2019-02-24T10:20:18.981Z,12.37
2019-02-24T10:23:41.539Z,11.87
2019-02-24T10:27:04.053Z,13.03
2019-02-24T10:30:26.418Z,11.33
2019-02-24T10:33:49.083Z,11.40
2019-02-24T10:37:11.484Z,11.93
2019-02-24T10:40:33.902Z,12.50
2019-02-24T10:43:56.339Z,12.37
2019-02-24T10:47:19.042Z,11.00
2019-02-24T10:50:41.522Z,10.80
2019-02-24T10:54:03.942Z,9.90
2019-02-24T10:57:26.101Z,10.40
2019-02-24T11:00:48.442Z,9.63
2019-02-24T11:04:10.885Z,9.70
2019-02-24T11:07:33.404Z,9.90
2019-02-24T11:10:56.047Z,10.30
2019-02-24T11:14:18.904Z,9.53
2019-02-24T11:17:41.430Z,10.30
2019-02-24T11:21:04.149Z,10.07
2019-02-24T11:24:26.353Z,10.63
2019-02-24T11:27:48.726Z,8.67
2019-02-24T11:31:11.248Z,9.63
2019-02-24T11:34:33.968Z,8.70
2019-02-24T11:37:56.809Z,9.23
2019-02-24T11:41:19.582Z,8.93
2019-02-24T11:44:42.516Z,8.63
2019-02-24T11:48:05.174Z,8.10
2019-02-24T11:51:27.815Z,9.00
2019-02-24T11:54:50.519Z,9.13
2019-02-24T11:58:13.197Z,9.13
2019-02-24T12:01:35.570Z,8.37
2019-02-24T12:04:58.050Z,8.63
2019-02-24T12:08:20.405Z,8.27
2019-02-24T12:11:42.817Z,8.00
2019-02-24T12:15:05.998Z,8.07
2019-02-24T12:18:28.242Z,7.90
2019-02-24T12:21:50.918Z,8.47
2019-02-24T12:25:13.565Z,8.00
2019-02-24T12:28:35.857Z,8.07
2019-02-24T12:31:58.301Z,8.73
2019-02-24T12:35:20.679Z,8.30
2019-02-24T12:38:43.102Z,8.10
2019-02-24T12:42:05.538Z,7.67
2019-02-24T12:45:28.017Z,6.83
2019-02-24T12:48:50.534Z,7.07
2019-02-24T12:52:13.095Z,7.63
2019-02-24T12:55:35.853Z,6.20
2019-02-24T12:58:58.458Z,6.87
2019-02-24T13:02:21.112Z,7.43
2019-02-24T13:05:43.318Z,5.93
2019-02-24T13:09:08.478Z,7.77
2019-02-24T13:12:30.980Z,7.20
2019-02-24T13:15:53.577Z,5.60
2019-02-24T13:19:16.097Z,5.73
2019-02-24T13:22:39.197Z,5.83
2019-02-24T13:26:01.770Z,5.83
2019-02-24T13:29:24.443Z,6.07
2019-02-24T13:32:46.929Z,5.23
2019-02-24T13:36:09.166Z,5.53
2019-02-24T13:39:31.924Z,5.23
2019-02-24T13:42:54.476Z,6.70
2019-02-24T13:46:17.176Z,4.97
2019-02-24T13:49:39.760Z,5.33
2019-02-24T13:53:02.212Z,4.73
2019-02-24T13:56:24.382Z,5.37
2019-02-24T13:59:46.505Z,5.70
2019-02-24T14:03:08.809Z,5.10
2019-02-24T14:06:31.258Z,6.70
2019-02-24T14:09:54.039Z,5.30
2019-02-24T14:13:16.543Z,5.80
2019-02-24T14:16:39.048Z,6.30
2019-02-24T14:20:01.463Z,5.57
2019-02-24T14:23:23.964Z,6.83
2019-02-24T14:26:46.346Z,9.73
2019-02-24T14:30:10.884Z,7.83
2019-02-24T14:33:33.582Z,7.43
2019-02-24T14:36:57.155Z,6.20
2019-02-24T14:40:20.045Z,5.50
2019-02-24T14:43:42.567Z,5.67
2019-02-24T14:47:04.885Z,5.63
2019-02-24T14:50:27.667Z,5.90
2019-02-24T14:53:50.193Z,5.20
2019-02-24T14:57:12.577Z,6.33
2019-02-24T15:00:35.329Z,7.50
2019-02-24T15:03:58.013Z,7.03
2019-02-24T15:07:20.538Z,7.10
2019-02-24T15:10:43.085Z,6.43
2019-02-24T15:14:05.734Z,6.70
2019-02-24T15:17:28.513Z,5.93
2019-02-24T15:20:51.182Z,6.40
2019-02-24T15:24:13.903Z,5.93
2019-02-24T15:27:36.583Z,6.20
2019-02-24T15:30:58.840Z,6.33
2019-02-24T15:34:21.693Z,5.50
2019-02-24T15:37:44.522Z,5.20
2019-02-24T15:41:06.897Z,6.23
2019-02-24T15:44:29.514Z,6.33
2019-02-24T15:47:51.722Z,7.80
2019-02-24T15:51:14.325Z,7.10
2019-02-24T15:54:37.041Z,6.90
2019-02-24T15:57:59.169Z,6.23
2019-02-24T16:01:21.546Z,6.77
2019-02-24T16:04:43.694Z,6.33
2019-02-24T16:08:05.850Z,4.77
2019-02-24T16:11:28.204Z,5.47
2019-02-24T16:14:51.747Z,5.80
2019-02-24T16:18:14.184Z,6.07
2019-02-24T16:21:36.914Z,6.77
2019-02-24T16:24:59.308Z,7.83
2019-02-24T16:28:22.070Z,8.03
2019-02-24T16:31:44.588Z,6.30
2019-02-24T16:35:08.815Z,6.10
2019-02-24T16:38:31.202Z,6.03
2019-02-24T16:41:53.845Z,6.47
2019-02-24T16:45:16.382Z,7.23
2019-02-24T16:48:38.885Z,8.07
2019-02-24T16:52:01.693Z,7.67
2019-02-24T16:55:24.316Z,7.80
2019-02-24T16:58:46.816Z,7.20
2019-02-24T17:02:09.345Z,6.07
2019-02-24T17:05:32.221Z,5.67
2019-02-24T17:09:01.297Z,6.50
2019-02-24T17:12:19.254Z,6.10
2019-02-24T17:15:42.043Z,5.93
2019-02-24T17:19:04.824Z,5.30
2019-02-24T17:22:27.570Z,6.17
2019-02-24T17:25:50.294Z,5.87
2019-02-24T17:29:12.957Z,7.87
2019-02-24T17:32:35.916Z,5.57
2019-02-24T17:36:07.679Z,5.47
2019-02-24T17:39:30.260Z,5.87
2019-02-24T17:42:52.965Z,5.90
2019-02-24T17:46:15.661Z,6.50
2019-02-24T17:49:38.569Z,6.43
2019-02-24T17:53:01.117Z,7.37
2019-02-24T17:56:23.671Z,7.77
2019-02-24T17:59:46.233Z,7.20
2019-02-24T18:03:08.594Z,7.20
2019-02-24T18:06:31.326Z,7.60
2019-02-24T18:09:53.691Z,7.77
2019-02-24T18:13:16.210Z,8.27
2019-02-24T18:16:38.718Z,9.27
2019-02-24T18:20:01.240Z,19.83
2019-02-24T18:23:23.873Z,12.67
2019-02-24T18:26:46.934Z,20.43
2019-02-24T18:30:12.677Z,8.17
2019-02-24T18:33:35.462Z,8.20
2019-02-24T18:36:57.927Z,16.73
2019-02-24T18:40:20.489Z,13.17
2019-02-24T18:43:43.064Z,9.40
2019-02-24T18:47:05.570Z,16.43
2019-02-24T18:50:28.293Z,7.97
2019-02-24T18:53:50.924Z,8.53
2019-02-24T18:57:13.595Z,9.70
2019-02-24T19:00:36.295Z,10.40
2019-02-24T19:03:58.704Z,14.67
2019-02-24T19:07:21.141Z,12.07
2019-02-24T19:10:43.637Z,8.63
2019-02-24T19:14:06.140Z,9.47
2019-02-24T19:17:28.597Z,9.83
2019-02-24T19:20:50.995Z,10.60
2019-02-24T19:24:13.755Z,11.97
2019-02-24T19:27:36.216Z,9.40
2019-02-24T19:30:58.698Z,9.83
2019-02-24T19:34:21.389Z,9.73
2019-02-24T19:37:44.201Z,8.83
2019-02-24T19:41:06.666Z,11.03
2019-02-24T19:44:29.086Z,8.80
2019-02-24T19:47:51.611Z,8.50
2019-02-24T19:51:14.006Z,8.80
2019-02-24T19:54:36.425Z,9.03
2019-02-24T19:57:59.156Z,8.20
2019-02-24T20:01:21.563Z,8.50
2019-02-24T20:04:44.266Z,9.80
2019-02-24T20:08:06.705Z,9.57
2019-02-24T20:11:29.184Z,10.60
2019-02-24T20:14:52.011Z,10.17
2019-02-24T20:18:14.655Z,10.43
2019-02-24T20:21:36.949Z,11.87
2019-02-24T20:24:59.563Z,13.40
2019-02-24T20:28:22.145Z,10.57
2019-02-24T20:31:45.043Z,11.40
2019-02-24T20:35:07.376Z,13.90
2019-02-24T20:38:29.396Z,11.30
2019-02-24T20:41:51.846Z,11.13
2019-02-24T20:45:15.061Z,11.40
2019-02-24T20:48:37.339Z,11.00
2019-02-24T20:51:59.785Z,10.60
2019-02-24T20:55:22.309Z,12.07
2019-02-24T20:58:44.757Z,14.23
2019-02-24T21:02:07.228Z,13.73
2019-02-24T21:05:30.653Z,12.23
2019-02-24T21:08:53.172Z,14.63
2019-02-24T21:12:15.566Z,15.93
2019-02-24T21:15:38.026Z,13.07
2019-02-24T21:19:00.560Z,12.70
2019-02-24T21:22:23.248Z,11.87
2019-02-24T21:25:45.671Z,11.67
2019-02-24T21:29:07.888Z,11.20
2019-02-24T21:32:30.628Z,15.30
2019-02-24T21:35:52.893Z,13.10
2019-02-24T21:39:15.668Z,12.87
2019-02-24T21:42:38.136Z,14.47
2019-02-24T21:46:00.894Z,11.30
2019-02-24T21:49:23.625Z,11.30
2019-02-24T21:52:45.963Z,13.23
2019-02-24T21:56:08.810Z,12.73
2019-02-24T21:59:36.964Z,11.27
2019-02-24T22:02:55.992Z,12.27
2019-02-24T22:06:18.801Z,12.60
2019-02-24T22:09:41.517Z,11.90
2019-02-24T22:13:04.137Z,11.10
2019-02-24T22:16:26.794Z,13.17
2019-02-24T22:19:49.009Z,13.73
2019-02-24T22:23:11.465Z,11.93
2019-02-24T22:26:34.065Z,12.70
2019-02-24T22:29:56.885Z,12.97
2019-02-24T22:33:19.237Z,13.13
2019-02-24T22:36:41.574Z,13.23
2019-02-24T22:40:04.528Z,14.60
2019-02-24T22:43:27.160Z,13.67
2019-02-24T22:46:50.512Z,13.43
2019-02-24T22:50:13.599Z,13.97
2019-02-24T22:53:35.775Z,14.37
2019-02-24T22:56:58.005Z,13.87
2019-02-24T23:00:54.469Z,14.87
2019-02-24T23:04:17.109Z,15.00
2019-02-24T23:07:39.772Z,15.40
2019-02-24T23:11:02.445Z,15.30
2019-02-24T23:14:24.940Z,14.43
2019-02-24T23:17:47.137Z,14.33
2019-02-24T23:21:09.677Z,14.10
2019-02-24T23:24:32.064Z,14.20
2019-02-24T23:27:54.245Z,14.40
2019-02-24T23:31:16.804Z,13.50
2019-02-24T23:34:39.293Z,13.03
2019-02-24T23:38:01.766Z,12.60
2019-02-24T23:41:24.236Z,12.87
2019-02-24T23:44:46.901Z,12.27
2019-02-24T23:48:09.063Z,14.43
2019-02-24T23:51:31.804Z,13.57
2019-02-24T23:54:54.078Z,12.40
2019-02-24T23:58:16.866Z,12.80
